Time;durP1;ratioP1;P1;durP2;ratioP2;P2;SDS_P1;SDS_P2;PMS_P1;PMS_P2;Temp;Humidity;BMP_temperature;BMP_pressure;BME280_temperature;BME280_humidity;BME280_pressure;Samples;Min_cycle;Max_cycle;Signal;HPM_P1;HPM_P2
2022/09/03 00:02:27;;;;;;;6.50;2.10;;;;;;;14.77;100.00;100382.76;1482685;88;21369;-80
2022/09/03 00:05:17;;;;;;;2.57;1.73;;;;;;;14.75;100.00;100373.59;1458910;88;21382;-81
2022/09/03 00:08:22;;;;;;;3.72;2.47;;;;;;;14.77;100.00;100378.25;1483309;86;21391;-81
2022/09/03 00:11:14;;;;;;;3.30;2.03;;;;;;;14.72;100.00;100377.13;1484521;88;21317;-80
2022/09/03 00:13:52;;;;;;;3.03;2.00;;;;;;;14.71;100.00;100380.30;1475337;88;21339;-81
2022/09/03 00:16:22;;;;;;;5.53;2.17;;;;;;;14.71;100.00;100380.30;1474759;88;21538;-84
2022/09/03 00:18:54;;;;;;;3.95;1.80;;;;;;;14.72;100.00;100385.11;1464102;86;21361;-82
2022/09/03 00:21:42;;;;;;;4.33;1.90;;;;;;;14.75;100.00;100379.44;1546626;88;21391;-84
2022/09/03 00:24:13;;;;;;;1.90;1.60;;;;;;;14.74;100.00;100375.95;1425453;88;21591;-84
2022/09/03 00:26:50;;;;;;;3.83;2.12;;;;;;;14.75;100.00;100376.26;1461818;88;21449;-83
2022/09/03 00:29:41;;;;;;;2.77;1.70;;;;;;;14.73;100.00;100375.63;1478418;88;21362;-82
2022/09/03 00:32:15;;;;;;;1.75;1.60;;;;;;;14.71;100.00;100377.62;1477960;86;21362;-84
2022/09/03 00:34:48;;;;;;;4.33;1.60;;;;;;;14.68;100.00;100376.66;1458575;88;21360;-84
2022/09/03 00:37:15;;;;;;;2.73;1.33;;;;;;;14.71;100.00;100370.97;1471643;88;21397;-85
2022/09/03 00:39:41;;;;;;;2.67;1.53;;;;;;;14.59;100.00;100375.05;1437461;90;21483;-85
2022/09/03 00:42:33;;;;;;;2.27;1.63;;;;;;;14.60;100.00;100373.52;1472217;86;22735;-82
2022/09/03 00:45:12;;;;;;;1.30;1.03;;;;;;;14.53;100.00;100369.91;1561409;88;21192;-80
2022/09/03 00:47:59;;;;;;;3.40;0.90;;;;;;;14.57;100.00;100366.39;1563257;88;21178;-82
2022/09/03 00:50:51;;;;;;;3.47;1.40;;;;;;;14.53;100.00;100377.05;1521742;86;21442;-82
2022/09/03 00:53:47;;;;;;;3.20;1.23;;;;;;;14.52;100.00;100374.89;1475195;88;21642;-82
2022/09/03 00:56:49;;;;;;;1.37;1.10;;;;;;;14.54;100.00;100370.73;1480463;86;21575;-83
2022/09/03 00:59:35;;;;;;;1.73;1.23;;;;;;;14.42;100.00;100374.27;1476443;88;22277;-82
2022/09/03 01:02:32;;;;;;;1.57;1.37;;;;;;;14.38;100.00;100373.75;1483225;88;21458;-82
2022/09/03 01:05:12;;;;;;;1.70;0.83;;;;;;;14.37;100.00;100372.61;1480510;86;22433;-82
2022/09/03 01:07:49;;;;;;;4.40;1.47;;;;;;;14.34;100.00;100370.30;1479132;88;21302;-84
2022/09/03 01:10:45;;;;;;;1.40;0.97;;;;;;;14.35;100.00;100370.11;1478395;88;21383;-82
2022/09/03 01:13:29;;;;;;;1.20;1.07;;;;;;;14.34;100.00;100367.13;1458507;86;21465;-83
2022/09/03 01:16:21;;;;;;;2.47;1.33;;;;;;;14.31;100.00;100368.81;1478428;88;22469;-84
2022/09/03 01:19:15;;;;;;;3.10;1.30;;;;;;;14.29;100.00;100365.48;1447815;88;21516;-83
2022/09/03 01:21:46;;;;;;;6.43;1.60;;;;;;;14.29;100.00;100365.48;1477198;87;21376;-79
2022/09/03 01:24:30;;;;;;;2.13;1.40;;;;;;;14.29;100.00;100369.98;1482060;86;21390;-81
2022/09/03 01:27:24;;;;;;;7.43;1.67;;;;;;;14.28;100.00;100373.16;1473499;86;21398;-81
2022/09/03 01:30:09;;;;;;;2.13;1.30;;;;;;;14.29;100.00;100365.99;1479468;87;21390;-80
2022/09/03 01:33:02;;;;;;;2.03;1.27;;;;;;;14.28;100.00;100367.83;1470609;88;21354;-81
2022/09/03 01:35:48;;;;;;;2.50;1.30;;;;;;;14.19;100.00;100371.53;1461062;88;21835;-80
2022/09/03 01:38:49;;;;;;;3.93;1.77;;;;;;;14.10;100.00;100380.56;1483055;88;21345;-81
2022/09/03 01:45:11;;;;;;;1.37;1.23;;;;;;;14.03;100.00;100381.72;1472183;87;21450;-80
2022/09/03 01:48:07;;;;;;;2.97;1.20;;;;;;;14.01;100.00;100385.05;1452116;89;21463;-80
2022/09/03 01:50:56;;;;;;;2.60;1.60;;;;;;;14.03;100.00;100384.89;1453696;89;22115;-82
2022/09/03 01:54:11;;;;;;;2.33;1.30;;;;;;;13.97;100.00;100389.88;1450958;89;21368;-82
2022/09/03 01:56:58;;;;;;;2.37;1.17;;;;;;;13.95;100.00;100396.37;1463813;89;21492;-81
2022/09/03 01:59:36;;;;;;;1.67;1.23;;;;;;;13.92;100.00;100397.54;1438447;88;22409;-80
2022/09/03 02:02:09;;;;;;;4.05;1.20;;;;;;;13.95;100.00;100393.71;1439757;89;21536;-81
2022/09/03 02:04:35;;;;;;;1.00;0.90;;;;;;;13.93;100.00;100398.40;1452453;89;21501;-81
2022/09/03 02:07:04;;;;;;;3.50;1.17;;;;;;;13.96;100.00;100394.89;1446357;89;21390;-82
2022/09/03 02:09:30;;;;;;;1.27;0.93;;;;;;;14.02;100.00;100392.55;1437235;89;21503;-82
2022/09/03 02:12:05;;;;;;;2.90;2.00;;;;;;;14.02;100.00;100395.21;1427043;90;21456;-82
2022/09/03 02:14:31;;;;;;;4.20;1.70;;;;;;;14.04;100.00;100398.51;1438589;89;21478;-83
2022/09/03 02:17:00;;;;;;;1.87;1.10;;;;;;;14.03;100.00;100396.86;1459672;89;21434;-84
2022/09/03 02:19:29;;;;;;;3.17;1.23;;;;;;;14.05;100.00;100401.52;1461819;88;21396;-82
2022/09/03 02:21:56;;;;;;;2.93;1.63;;;;;;;14.08;100.00;100404.66;1460082;89;21337;-81
2022/09/03 02:24:25;;;;;;;2.20;1.20;;;;;;;14.09;100.00;100400.98;1454747;88;21389;-81
2022/09/03 02:26:53;;;;;;;1.53;1.03;;;;;;;14.09;100.00;100404.16;1447029;88;21463;-81
2022/09/03 02:29:20;;;;;;;3.93;1.20;;;;;;;14.10;100.00;100401.84;1462055;89;21374;-82
2022/09/03 02:31:46;;;;;;;1.37;1.20;;;;;;;14.08;100.00;100399.84;1451557;89;21346;-81
2022/09/03 02:34:12;;;;;;;1.83;1.20;;;;;;;14.05;100.00;100400.19;1438361;89;21397;-81
2022/09/03 02:36:45;;;;;;;3.90;1.10;;;;;;;14.03;100.00;100400.85;1441601;89;22394;-81
2022/09/03 02:39:14;;;;;;;2.27;1.23;;;;;;;14.03;100.00;100398.19;1443739;89;21508;-81
2022/09/03 02:41:40;;;;;;;2.37;1.20;;;;;;;14.05;100.00;100405.01;1457275;89;21324;-81
2022/09/03 02:44:27;;;;;;;3.33;1.40;;;;;;;14.08;100.00;100409.16;1437946;90;21323;-81
2022/09/03 02:47:03;;;;;;;1.70;1.10;;;;;;;14.10;100.00;100409.33;1444554;89;21500;-79
2022/09/03 02:49:31;;;;;;;2.23;1.17;;;;;;;14.08;100.00;100412.65;1454821;89;23282;-79
2022/09/03 02:52:00;;;;;;;2.33;1.27;;;;;;;14.08;100.00;100408.66;1451731;88;21372;-81
2022/09/03 02:54:27;;;;;;;2.60;1.40;;;;;;;14.10;100.00;100409.83;1432087;89;22535;-81
2022/09/03 02:56:53;;;;;;;4.07;1.03;;;;;;;14.12;100.00;100413.95;1448651;89;21316;-81
2022/09/03 02:59:21;;;;;;;3.40;1.50;;;;;;;14.12;100.00;100411.80;1462916;89;21434;-82
2022/09/03 03:01:47;;;;;;;1.57;1.30;;;;;;;14.17;100.00;100412.12;1448601;89;21367;-82
2022/09/03 03:04:14;;;;;;;2.43;1.33;;;;;;;14.17;100.00;100405.47;1447701;89;21410;-82
2022/09/03 03:06:40;;;;;;;1.40;0.93;;;;;;;14.18;100.00;100407.12;1460267;89;22247;-83
2022/09/03 03:09:07;;;;;;;1.63;1.30;;;;;;;14.19;100.00;100403.47;1458429;89;21352;-81
2022/09/03 03:11:35;;;;;;;6.63;1.40;;;;;;;14.16;100.00;100406.48;1461847;89;21374;-80
2022/09/03 03:14:01;;;;;;;6.10;1.97;;;;;;;14.15;100.00;100410.13;1462960;89;21552;-81
2022/09/03 03:16:27;;;;;;;1.47;1.00;;;;;;;14.17;100.00;100412.12;1459525;89;22284;-80
2022/09/03 03:18:56;;;;;;;2.83;1.03;;;;;;;14.20;100.00;100409.12;1443275;89;21993;-80
2022/09/03 03:21:22;;;;;;;1.73;1.00;;;;;;;14.17;100.00;100408.12;1438408;89;21389;-80
2022/09/03 03:23:48;;;;;;;1.57;1.13;;;;;;;14.17;100.00;100416.94;1445361;89;22336;-79
2022/09/03 03:26:19;;;;;;;2.00;1.10;;;;;;;14.19;100.00;100416.78;1465771;89;21426;-80
2022/09/03 03:28:50;;;;;;;15.03;1.87;;;;;;;14.22;100.00;100417.77;1452152;89;22269;-80
2022/09/03 03:31:20;;;;;;;2.73;1.03;;;;;;;14.22;100.00;100416.44;1453020;89;21374;-80
2022/09/03 03:33:56;;;;;;;2.77;1.47;;;;;;;14.22;100.00;100416.44;1442304;89;22358;-81
2022/09/03 03:36:25;;;;;;;2.00;1.30;;;;;;;14.19;100.00;100420.27;1429996;89;22682;-78
2022/09/03 03:41:22;;;;;;;1.23;0.93;;;;;;;14.22;100.00;100423.09;1496475;85;27880;-81
2022/09/03 03:43:58;;;;;;;1.13;0.93;;;;;;;14.20;100.00;100427.75;1485244;88;21538;-79
2022/09/03 03:46:26;;;;;;;5.57;1.00;;;;;;;14.17;100.00;100415.61;1491277;86;21418;-80
2022/09/03 03:48:52;;;;;;;2.07;1.43;;;;;;;14.20;100.00;100418.44;1479477;88;23689;-79
2022/09/03 03:51:19;;;;;;;0.80;0.80;;;;;;;14.20;100.00;100425.91;1482188;88;21529;-80
2022/09/03 03:53:46;;;;;;;1.50;1.03;;;;;;;14.15;100.00;100423.44;1475511;87;21514;-81
2022/09/03 03:56:15;;;;;;;2.33;0.97;;;;;;;14.15;100.00;100423.44;1482981;86;21448;-79
2022/09/03 03:58:42;;;;;;;4.30;1.00;;;;;;;14.18;100.00;100433.73;1478682;86;21552;-80
2022/09/03 04:01:14;;;;;;;1.60;0.80;;;;;;;14.17;100.00;100430.75;1483041;88;21457;-80
2022/09/03 04:03:41;;;;;;;1.80;1.17;;;;;;;14.23;100.00;100428.73;1494466;86;22298;-80
2022/09/03 04:06:09;;;;;;;0.90;0.90;;;;;;;14.30;100.00;100434.19;1482724;86;21551;-79
2022/09/03 04:08:39;;;;;;;2.33;0.87;;;;;;;14.33;100.00;100424.05;1484363;88;21462;-80
2022/09/03 04:11:09;;;;;;;3.08;1.10;;;;;;;14.37;100.00;100425.86;1494549;86;21486;-81
2022/09/03 04:13:39;;;;;;;2.05;0.98;;;;;;;14.40;100.00;100431.67;1484175;86;21470;-79
2022/09/03 04:16:12;;;;;;;2.20;1.20;;;;;;;14.42;100.00;100430.17;1486070;86;21462;-81
2022/09/03 04:18:39;;;;;;;1.07;0.80;;;;;;;14.44;100.00;100430.34;1507688;86;21547;-80
2022/09/03 04:21:10;;;;;;;1.90;1.17;;;;;;;14.44;100.00;100431.67;1480734;86;21456;-82
2022/09/03 04:23:39;;;;;;;1.25;1.12;;;;;;;14.44;100.00;100433.48;1484414;88;21404;-81
2022/09/03 04:26:07;;;;;;;2.80;0.90;;;;;;;14.42;100.00;100437.66;1487382;87;21439;-78
2022/09/03 04:28:34;;;;;;;2.03;1.07;;;;;;;14.40;100.00;100437.50;1489335;86;21404;-81
2022/09/03 04:31:07;;;;;;;3.13;1.10;;;;;;;14.41;100.00;100441.34;1489224;86;21441;-80
2022/09/03 04:33:34;;;;;;;3.80;0.90;;;;;;;14.43;100.00;100439.81;1494812;86;21551;-80
2022/09/03 04:36:09;;;;;;;2.50;1.10;;;;;;;14.43;100.00;100431.83;1489277;86;22257;-80
2022/09/03 04:38:39;;;;;;;7.67;2.87;;;;;;;14.49;100.00;100436.97;1484062;86;22089;-79
2022/09/03 04:41:08;;;;;;;1.22;1.12;;;;;;;14.54;100.00;100434.66;1480249;88;21514;-79
2022/09/03 04:43:34;;;;;;;7.43;1.00;;;;;;;14.58;100.00;100439.95;1481570;88;21685;-80
2022/09/03 04:46:03;;;;;;;4.30;1.90;;;;;;;14.61;100.00;100440.93;1474611;88;21596;-78
2022/09/03 04:48:32;;;;;;;2.73;1.40;;;;;;;14.62;100.00;100442.61;1475442;88;21643;-80
2022/09/03 04:51:05;;;;;;;2.80;0.80;;;;;;;14.57;100.00;100448.95;1472727;88;21495;-80
2022/09/03 04:53:36;;;;;;;1.27;1.17;;;;;;;14.51;100.00;100453.61;1475193;88;22381;-80
2022/09/03 04:56:03;;;;;;;;;;;;;;;14.51;100.00;100450.44;1468386;88;22425;-77
2022/09/03 04:58:29;;;;;;;1.23;1.13;;;;;;;14.51;100.00;100452.28;1481095;88;20513;-81
2022/09/03 05:00:55;;;;;;;1.87;1.10;;;;;;;14.47;100.00;100449.61;1477377;88;22419;-84
2022/09/03 05:03:21;;;;;;;2.23;1.10;;;;;;;14.51;100.00;100454.94;1470927;88;22485;-84
2022/09/03 05:05:54;;;;;;;3.77;1.10;;;;;;;14.50;100.00;100451.93;1467233;88;21389;-81
2022/09/03 05:08:22;;;;;;;2.73;1.10;;;;;;;14.55;100.00;100456.28;1469035;88;22372;-84
2022/09/03 05:10:48;;;;;;;4.17;1.57;;;;;;;14.59;100.00;100456.28;1469888;88;22417;-80
2022/09/03 05:13:14;;;;;;;1.20;1.10;;;;;;;14.64;100.00;100460.56;1467760;88;22156;-80
2022/09/03 05:15:42;;;;;;;2.63;1.20;;;;;;;14.67;100.00;100456.22;1463613;88;21484;-79
2022/09/03 05:18:08;;;;;;;3.30;1.37;;;;;;;14.71;100.00;100454.06;1469460;88;22504;-83
2022/09/03 05:20:34;;;;;;;3.37;1.50;;;;;;;14.73;100.00;100456.88;1480087;88;21536;-82
2022/09/03 05:23:02;;;;;;;3.20;1.40;;;;;;;14.80;100.00;100452.50;1467052;88;21448;-82
2022/09/03 05:25:31;;;;;;;5.63;2.63;;;;;;;14.84;100.00;100452.47;1472190;88;22279;-82
2022/09/03 05:27:58;;;;;;;2.67;1.73;;;;;;;14.87;100.00;100455.28;1463775;88;22579;-83
2022/09/03 05:30:24;;;;;;;1.50;1.40;;;;;;;14.86;100.00;100457.13;1469137;88;21415;-81
2022/09/03 05:32:50;;;;;;;2.53;1.20;;;;;;;14.83;100.00;100462.80;1473435;88;21463;-79
2022/09/03 05:35:17;;;;;;;1.20;0.90;;;;;;;14.83;100.00;100465.47;1477888;88;22343;-80
2022/09/03 05:37:44;;;;;;;1.57;1.33;;;;;;;14.86;100.00;100471.78;1477637;88;21463;-81
2022/09/03 05:40:10;;;;;;;6.53;1.40;;;;;;;14.88;100.00;100471.11;1471375;86;21547;-82
2022/09/03 05:42:38;;;;;;;3.30;1.50;;;;;;;14.96;100.00;100472.91;1455671;88;21465;-82
2022/09/03 05:45:10;;;;;;;1.30;1.20;;;;;;;15.01;100.00;100475.86;1468169;88;21602;-81
2022/09/03 05:47:40;;;;;;;1.17;0.90;;;;;;;15.05;100.00;100475.86;1461707;88;22122;-79
2022/09/03 05:50:09;;;;;;;1.75;1.10;;;;;;;15.11;100.00;100479.66;1473390;88;21406;-78
2022/09/03 05:52:36;;;;;;;4.83;1.13;;;;;;;15.15;100.00;100487.61;1467277;88;21465;-79
2022/09/03 05:55:05;;;;;;;1.77;1.20;;;;;;;15.17;100.00;100490.12;1463501;86;21529;-81
2022/09/03 05:57:31;;;;;;;1.93;1.30;;;;;;;15.23;100.00;100488.08;1444508;89;22294;-81
2022/09/03 06:00:00;;;;;;;3.20;2.00;;;;;;;15.30;100.00;100489.02;1471974;88;21562;-79
2022/09/03 06:02:26;;;;;;;4.03;1.30;;;;;;;15.37;100.00;100493.16;1465117;86;22478;-80
2022/09/03 06:04:52;;;;;;;2.87;1.60;;;;;;;15.49;100.00;100495.22;1497303;86;21660;-81
2022/09/03 06:07:18;;;;;;;1.37;1.27;;;;;;;15.61;100.00;100495.63;1431193;90;21502;-86
2022/09/03 06:09:44;;;;;;;4.33;1.50;;;;;;;15.73;100.00;100492.89;1439818;91;21509;-80
2022/09/03 06:12:10;;;;;;;2.70;2.20;;;;;;;15.87;100.00;100492.61;1480190;86;21448;-78
2022/09/03 06:14:36;;;;;;;2.93;2.13;;;;;;;15.93;100.00;100491.88;1494267;86;21552;-80
2022/09/03 06:17:02;;;;;;;5.13;2.13;;;;;;;16.04;100.00;100492.47;1469960;86;22306;-80
2022/09/03 06:19:28;;;;;;;4.03;2.30;;;;;;;16.10;99.31;100489.89;1450522;90;21515;-79
2022/09/03 06:21:54;;;;;;;4.03;2.40;;;;;;;16.08;97.58;100485.74;1481732;86;21458;-80
2022/09/03 06:24:26;;;;;;;3.77;2.30;;;;;;;16.07;97.52;100480.91;1475411;88;22404;-84
2022/09/03 06:26:52;;;;;;;11.50;2.80;;;;;;;16.05;97.07;100479.44;1472771;88;22470;-91
2022/09/03 06:29:18;;;;;;;5.23;2.17;;;;;;;16.04;96.35;100484.46;1462873;88;21436;-88
2022/09/03 06:31:47;;;;;;;6.17;2.40;;;;;;;16.09;94.47;100482.08;1460205;86;21338;-87
2022/09/03 06:34:15;;;;;;;4.50;2.43;;;;;;;16.06;94.66;100480.61;1465309;88;21590;-86
2022/09/03 06:36:41;;;;;;;3.33;2.10;;;;;;;16.06;93.16;100473.92;1486042;88;21495;-87
2022/09/03 06:39:07;;;;;;;10.33;2.80;;;;;;;16.05;92.44;100478.92;1480569;88;21480;-83
2022/09/03 06:41:34;;;;;;;5.40;2.80;;;;;;;16.14;93.98;100472.52;1481340;87;22010;-86
2022/09/03 06:44:04;;;;;;;5.20;2.50;;;;;;;16.13;93.75;100469.50;1448911;90;22508;-87
2022/09/03 06:46:34;;;;;;;2.83;1.87;;;;;;;16.05;91.69;100473.59;1473691;87;22402;-85
2022/09/03 06:49:00;;;;;;;3.35;2.67;;;;;;;16.10;91.21;100474.39;1492671;87;21603;-86
2022/09/03 06:51:29;;;;;;;3.90;3.07;;;;;;;16.24;91.25;100475.73;1476972;87;21567;-87
2022/09/03 06:54:02;;;;;;;4.97;2.77;;;;;;;16.30;88.86;100484.84;1483599;87;21619;-87
2022/09/03 06:56:31;;;;;;;4.43;2.40;;;;;;;16.32;89.29;100488.17;1472441;87;22492;-87
2022/09/03 06:58:59;;;;;;;2.90;2.60;;;;;;;16.42;89.04;100503.91;1424706;91;21516;-87
2022/09/03 07:01:31;;;;;;;6.30;2.77;;;;;;;16.48;87.49;100503.17;1471333;88;22564;-86
2022/09/03 07:04:01;;;;;;;4.00;2.60;;;;;;;16.62;87.07;100505.02;1475917;87;22527;-87
2022/09/03 07:06:32;;;;;;;10.43;2.40;;;;;;;16.58;84.76;100507.75;1447178;87;21441;-87
2022/09/03 07:08:59;;;;;;;4.27;2.67;;;;;;;16.54;85.52;100505.11;1496029;87;21806;-87
2022/09/03 07:11:30;;;;;;;3.97;2.23;;;;;;;16.46;85.12;100507.90;1460309;90;21494;-84
2022/09/03 07:13:58;;;;;;;2.67;2.17;;;;;;;16.40;84.90;100505.94;1473559;88;21551;-87
2022/09/03 07:16:32;;;;;;;3.20;1.70;;;;;;;16.37;86.01;100515.65;1470809;87;21508;-89
2022/09/03 07:18:59;;;;;;;4.83;2.50;;;;;;;16.38;85.47;100515.48;1482799;87;21633;-86
2022/09/03 07:21:29;;;;;;;2.37;1.87;;;;;;;16.37;84.47;100508.97;1472394;87;21589;-88
2022/09/03 07:23:56;;;;;;;2.27;2.07;;;;;;;16.37;84.07;100507.16;1485370;88;22138;-86
2022/09/03 07:26:29;;;;;;;4.53;1.90;;;;;;;16.46;84.54;100514.58;1478625;88;22220;-86
2022/09/03 07:28:57;;;;;;;2.77;1.50;;;;;;;16.50;82.02;100514.52;1473604;88;21478;-88
2022/09/03 07:31:30;;;;;;;1.43;1.23;;;;;;;16.76;82.03;100511.41;1481351;87;21463;-88
2022/09/03 07:33:59;;;;;;;2.50;1.23;;;;;;;16.87;80.78;100512.78;1432903;90;22345;-88
2022/09/03 07:36:27;;;;;;;2.30;1.70;;;;;;;16.84;78.38;100513.16;1467591;88;21449;-85
2022/09/03 07:38:57;;;;;;;2.47;1.53;;;;;;;16.82;77.88;100523.19;1475262;87;22045;-85
2022/09/03 07:41:25;;;;;;;1.30;1.20;;;;;;;16.85;78.82;100533.00;1486706;87;21691;-86
2022/09/03 07:43:53;;;;;;;1.93;1.70;;;;;;;16.87;76.22;100524.81;1466787;87;21418;-85
2022/09/03 07:46:22;;;;;;;2.53;1.67;;;;;;;17.01;76.86;100531.98;1460277;87;21493;-86
2022/09/03 07:48:55;;;;;;;2.23;1.90;;;;;;;17.20;76.96;100537.22;1475842;87;21419;-86
2022/09/03 07:51:27;;;;;;;1.60;1.40;;;;;;;17.38;77.22;100539.50;1478161;87;21492;-86
2022/09/03 07:53:56;;;;;;;2.35;1.37;;;;;;;17.43;75.21;100535.73;1473021;87;22269;-86
2022/09/03 07:56:24;;;;;;;3.15;1.30;;;;;;;17.60;74.19;100538.48;1477173;87;21582;-85
2022/09/03 07:58:50;;;;;;;6.58;2.10;;;;;;;17.73;73.83;100540.98;1472686;88;21433;-85
2022/09/03 08:01:20;;;;;;;5.67;1.98;;;;;;;17.93;74.16;100536.67;1468193;88;22248;-86
2022/09/03 08:03:49;;;;;;;3.27;1.83;;;;;;;18.12;75.09;100538.34;1471051;87;21493;-86
2022/09/03 08:06:19;;;;;;;1.52;1.40;;;;;;;18.27;74.86;100544.46;1476177;88;21574;-87
2022/09/03 08:08:45;;;;;;;1.77;1.27;;;;;;;18.29;71.88;100550.43;1481375;87;21456;-86
2022/09/03 08:11:16;;;;;;;4.65;1.65;;;;;;;18.28;71.38;100543.42;1428364;90;21363;-86
2022/09/03 08:13:47;;;;;;;3.35;1.40;;;;;;;18.41;71.17;100551.56;1492212;87;21502;-84
2022/09/03 08:16:20;;;;;;;3.40;1.35;;;;;;;18.57;71.90;100550.42;1473098;87;21485;-85
2022/09/03 08:18:46;;;;;;;2.00;1.12;;;;;;;18.60;69.72;100552.70;1477159;88;21596;-85
2022/09/03 08:21:16;;;;;;;2.40;1.62;;;;;;;18.65;69.94;100549.44;1472861;87;21552;-89
2022/09/03 08:23:49;;;;;;;1.85;1.30;;;;;;;18.55;68.90;100551.64;1455673;88;21515;-85
2022/09/03 08:26:17;;;;;;;2.90;1.40;;;;;;;18.61;70.31;100550.84;1467869;87;21433;-87
2022/09/03 08:28:44;;;;;;;2.60;1.60;;;;;;;18.74;71.47;100556.33;1397081;87;21390;-87
2022/09/03 08:31:17;;;;;;;4.15;2.15;;;;;;;18.80;70.76;100554.19;1401578;88;21338;-88
2022/09/03 08:33:47;;;;;;;7.67;2.20;;;;;;;18.90;70.30;100547.95;1411977;88;21626;-84
2022/09/03 08:36:24;;;;;;;3.83;1.10;;;;;;;18.90;66.98;100546.63;1393437;87;21375;-85
2022/09/03 08:38:53;;;;;;;1.60;1.22;;;;;;;18.94;66.98;100550.55;1557875;88;21324;-88
2022/09/03 08:42:00;;;;;;;1.60;1.50;;;;;;;18.87;64.88;100551.05;1406718;87;22189;-87
2022/09/03 08:44:47;;;;;;;1.77;1.17;;;;;;;18.92;67.64;100552.59;1475628;88;21449;-83
2022/09/03 08:47:24;;;;;;;1.50;1.40;;;;;;;18.85;66.69;100551.75;1558227;87;21346;-84
2022/09/03 08:50:23;;;;;;;1.20;1.10;;;;;;;18.92;66.18;100545.88;1557405;88;22353;-84
2022/09/03 08:53:03;;;;;;;2.92;1.12;;;;;;;18.97;66.24;100547.16;1533527;87;21478;-86
2022/09/03 08:55:50;;;;;;;1.00;0.70;;;;;;;19.32;66.86;100545.22;1473066;87;21514;-88
2022/09/03 08:58:24;;;;;;;1.47;0.88;;;;;;;19.12;62.10;100547.31;1498917;87;22505;-85
2022/09/03 09:01:32;;;;;;;1.25;1.15;;;;;;;19.19;63.20;100551.38;1477736;88;21624;-86
2022/09/03 09:04:12;;;;;;;2.12;1.35;;;;;;;19.46;63.62;100547.42;1467499;87;21389;-88
2022/09/03 09:06:54;;;;;;;;;;;;;;;19.49;64.78;100548.36;1415764;90;21515;-90
2022/09/03 09:09:48;;;;;;;5.83;1.67;;;;;;;19.58;64.24;100537.22;1443439;90;21520;-90
2022/09/03 09:12:35;;;;;;;2.47;1.10;;;;;;;19.86;64.29;100536.78;1470294;87;21500;-89
2022/09/03 09:15:44;;;;;;;1.35;1.10;;;;;;;19.87;63.34;100537.08;1479740;86;21478;-92
2022/09/03 09:18:15;;;;;;;2.95;1.47;;;;;;;19.71;62.85;100544.52;1477657;88;21515;-92
2022/09/03 09:20:50;;;;;;;1.27;1.17;;;;;;;19.72;62.03;100539.45;1436684;90;21652;-93
2022/09/03 09:23:33;;;;;;;2.57;0.97;;;;;;;19.81;63.90;100539.55;1480878;87;21478;-90
2022/09/03 09:26:05;;;;;;;1.82;0.98;;;;;;;19.63;62.32;100533.94;1479359;87;21538;-89
2022/09/03 09:28:37;;;;;;;1.45;0.90;;;;;;;19.76;63.63;100542.02;1477152;88;21583;-91
2022/09/03 09:31:07;;;;;;;1.65;1.05;;;;;;;19.83;60.59;100539.36;1476280;87;21500;-85
2022/09/03 09:33:33;;;;;;;;;;;;;;;19.82;61.68;100536.34;1468451;87;21456;-89
2022/09/03 09:36:07;;;;;;;3.90;1.10;;;;;;;19.73;58.70;100546.45;1496301;87;20296;-89
2022/09/03 09:38:37;;;;;;;1.45;0.90;;;;;;;19.56;58.85;100539.79;1484192;87;21495;-90
2022/09/03 09:41:18;;;;;;;2.02;1.42;;;;;;;19.47;60.04;100544.52;1474336;87;21396;-90
2022/09/03 09:43:52;;;;;;;1.80;1.32;;;;;;;19.41;60.91;100554.73;1469549;87;21419;-91
2022/09/03 09:46:26;;;;;;;2.05;1.32;;;;;;;19.39;62.51;100552.27;1471473;87;21560;-91
2022/09/03 09:48:56;;;;;;;8.70;1.40;;;;;;;19.73;62.47;100551.01;1472849;87;22285;-92
2022/09/03 09:51:25;;;;;;;4.00;1.10;;;;;;;20.14;62.89;100541.92;1477252;88;21515;-92
2022/09/03 09:54:20;;;;;;;1.32;0.85;;;;;;;20.25;61.58;100543.50;1471766;87;21404;-91
2022/09/03 09:56:44;;;;;;;0.80;0.80;;;;;;;20.48;60.90;100543.54;1471616;87;21551;-92
2022/09/03 09:59:13;;;;;;;0.82;0.75;;;;;;;20.82;60.53;100492.69;1474664;87;21537;-92
2022/09/03 10:01:48;;;;;;;0.42;0.42;;;;;;;21.06;59.89;100531.52;1452294;90;21419;-93
2022/09/03 10:04:26;;;;;;;1.20;0.62;;;;;;;21.33;57.15;100537.58;1496167;87;22345;-91
2022/09/03 10:07:03;;;;;;;1.20;0.50;;;;;;;21.36;55.51;100533.62;1469545;88;21478;-92
2022/09/03 10:09:33;;;;;;;0.40;0.40;;;;;;;21.45;56.25;100542.30;1472855;88;21515;-88
2022/09/03 10:12:26;;;;;;;1.85;0.65;;;;;;;21.71;55.74;100534.58;1476861;87;21441;-92
2022/09/03 10:15:02;;;;;;;1.57;0.70;;;;;;;21.95;56.10;100535.13;1474004;88;21493;-89
2022/09/03 10:18:12;;;;;;;2.00;0.53;;;;;;;21.99;56.27;100530.94;1479835;88;21493;-88
2022/09/03 10:21:30;;;;;;;1.95;0.70;;;;;;;21.95;52.72;100531.08;1472551;88;21596;-91
2022/09/03 10:24:26;;;;;;;0.55;0.55;;;;;;;21.70;52.67;100534.28;1485953;87;21523;-92
2022/09/03 10:26:52;;;;;;;6.33;0.50;;;;;;;21.58;54.52;100536.33;1447199;88;21464;-90
2022/09/03 10:29:24;;;;;;;3.12;0.60;;;;;;;21.24;53.64;100536.18;1491872;87;22476;-96
2022/09/03 10:32:29;;;;;;;0.42;0.42;;;;;;;21.17;55.61;100538.06;1468528;87;21533;-96
2022/09/03 10:35:28;;;;;;;0.80;0.55;;;;;;;20.94;55.22;100531.36;1481904;88;21662;-94
2022/09/03 10:38:12;;;;;;;0.70;0.68;;;;;;;20.80;54.83;100532.94;1452090;89;21621;-87
2022/09/03 10:41:04;;;;;;;0.75;0.60;;;;;;;20.70;54.79;100532.87;1448603;89;21545;-87
2022/09/03 10:43:57;;;;;;;1.47;0.65;;;;;;;20.89;55.79;100531.69;1427380;91;21614;-84
2022/09/03 10:46:30;;;;;;;0.75;0.50;;;;;;;21.27;56.37;100527.67;1419154;90;21459;-86
2022/09/03 10:49:48;;;;;;;3.37;0.60;;;;;;;21.63;53.94;100517.62;1445454;90;21445;-92
2022/09/03 10:52:26;;;;;;;1.37;0.53;;;;;;;21.64;54.68;100522.51;1427488;90;21577;-87
2022/09/03 10:55:04;;;;;;;0.90;0.68;;;;;;;;;;1427053;90;22344;-90
2022/09/03 10:57:56;;;;;;;5.30;0.60;;;;;;;21.38;53.69;100532.94;1431002;90;21494;-90
2022/09/03 11:00:24;;;;;;;1.82;0.50;;;;;;;21.45;52.90;100526.97;1447586;90;21407;-91
2022/09/03 11:03:30;;;;;;;0.40;0.40;;;;;;;21.66;52.94;100527.66;1429317;90;21548;-86
2022/09/03 11:06:05;;;;;;;3.45;0.70;;;;;;;21.99;51.28;100526.89;1432823;90;21696;-86
2022/09/03 11:08:42;;;;;;;2.98;0.88;;;;;;;22.07;52.22;100519.88;1434255;91;21591;-87
2022/09/03 11:11:25;;;;;;;2.05;0.50;;;;;;;21.94;52.77;100535.33;1438110;90;21600;-87
2022/09/03 11:14:12;;;;;;;3.62;0.80;;;;;;;21.67;53.57;100532.03;1443047;88;21486;-86
2022/09/03 11:16:50;;;;;;;0.42;0.42;;;;;;;21.68;55.14;100535.01;1475307;87;21451;-86
2022/09/03 11:19:30;;;;;;;0.88;0.60;;;;;;;21.77;55.62;100535.05;1470887;87;21413;-85
2022/09/03 11:21:57;;;;;;;2.25;0.50;;;;;;;22.15;55.13;100520.10;1476798;87;21554;-86
2022/09/03 11:24:27;;;;;;;1.98;0.80;;;;;;;22.51;53.02;100526.11;1480836;87;21509;-86
2022/09/03 11:27:08;;;;;;;0.85;0.70;;;;;;;22.81;51.04;100514.56;1482151;87;21581;-86
2022/09/03 11:30:06;;;;;;;0.78;0.60;;;;;;;22.94;50.26;100522.50;1470690;87;21412;-87
2022/09/03 11:32:53;;;;;;;0.40;0.40;;;;;;;23.24;51.74;100523.07;1473213;87;21503;-88
2022/09/03 11:35:36;;;;;;;3.42;0.68;;;;;;;23.14;51.25;100529.56;1474625;87;21421;-85
2022/09/03 11:38:17;;;;;;;0.75;0.47;;;;;;;22.81;50.08;100528.58;1470344;88;21508;-85
2022/09/03 11:41:14;;;;;;;1.15;1.05;;;;;;;22.58;51.49;100527.91;1473405;87;21463;-86
2022/09/03 11:43:50;;;;;;;2.10;0.50;;;;;;;22.36;51.88;100532.40;1473774;87;21552;-85
2022/09/03 11:46:29;;;;;;;0.30;0.30;;;;;;;22.36;51.85;100527.53;1444868;88;21382;-84
2022/09/03 11:49:10;;;;;;;0.47;0.40;;;;;;;22.68;51.89;100527.69;1462481;88;21340;-86
2022/09/03 11:51:45;;;;;;;2.98;0.40;;;;;;;22.97;51.54;100526.13;1415953;88;22308;-86
2022/09/03 11:54:22;;;;;;;0.57;0.40;;;;;;;23.04;48.46;100522.52;1442434;88;21516;-86
2022/09/03 11:57:12;;;;;;;5.25;0.72;;;;;;;22.67;47.30;100526.55;1457759;88;21419;-85
2022/09/03 11:59:42;;;;;;;1.80;0.47;;;;;;;22.74;49.13;100533.53;1427295;90;21741;-84
2022/09/03 12:02:28;;;;;;;3.62;0.35;;;;;;;22.76;47.23;100537.37;1426968;90;22765;-86
2022/09/03 12:05:21;;;;;;;0.40;0.40;;;;;;;22.97;49.23;100534.75;1419708;90;21479;-86